sensor_id;sensor_type;location;lat;lon;timestamp;P1;durP1;ratioP1;P2;durP2;ratioP2
48835;SDS011;62581;47.342;7.908;2024-01-30T00:00:08;29.33;;;16.27;;
48835;SDS011;62581;47.342;7.908;2024-01-30T00:02:36;27.77;;;15.03;;
48835;SDS011;62581;47.342;7.908;2024-01-30T00:05:03;27.38;;;15.27;;
48835;SDS011;62581;47.342;7.908;2024-01-30T00:07:30;26.45;;;15.10;;
48835;SDS011;62581;47.342;7.908;2024-01-30T00:09:59;30.27;;;15.15;;
48835;SDS011;62581;47.342;7.908;2024-01-30T00:12:26;26.50;;;16.10;;
48835;SDS011;62581;47.342;7.908;2024-01-30T00:14:53;26.15;;;16.00;;
48835;SDS011;62581;47.342;7.908;2024-01-30T00:17:20;25.98;;;15.35;;
48835;SDS011;62581;47.342;7.908;2024-01-30T00:19:47;26.30;;;15.15;;
48835;SDS011;62581;47.342;7.908;2024-01-30T00:22:14;29.85;;;16.23;;
48835;SDS011;62581;47.342;7.908;2024-01-30T00:24:41;27.35;;;14.45;;
48835;SDS011;62581;47.342;7.908;2024-01-30T00:27:09;29.25;;;15.85;;
48835;SDS011;62581;47.342;7.908;2024-01-30T00:29:36;28.73;;;15.90;;
48835;SDS011;62581;47.342;7.908;2024-01-30T00:32:03;27.08;;;15.40;;
48835;SDS011;62581;47.342;7.908;2024-01-30T00:34:31;29.38;;;15.27;;
48835;SDS011;62581;47.342;7.908;2024-01-30T00:36:58;28.08;;;15.50;;
48835;SDS011;62581;47.342;7.908;2024-01-30T00:39:25;26.50;;;15.07;;
48835;SDS011;62581;47.342;7.908;2024-01-30T00:41:52;29.77;;;16.05;;
48835;SDS011;62581;47.342;7.908;2024-01-30T00:44:20;29.55;;;15.27;;
48835;SDS011;62581;47.342;7.908;2024-01-30T00:46:47;28.02;;;15.90;;
48835;SDS011;62581;47.342;7.908;2024-01-30T00:49:14;26.55;;;15.68;;
48835;SDS011;62581;47.342;7.908;2024-01-30T00:51:41;31.05;;;16.17;;
48835;SDS011;62581;47.342;7.908;2024-01-30T00:54:08;27.58;;;16.17;;
48835;SDS011;62581;47.342;7.908;2024-01-30T00:56:35;26.17;;;16.40;;
48835;SDS011;62581;47.342;7.908;2024-01-30T00:59:02;34.97;;;17.77;;
48835;SDS011;62581;47.342;7.908;2024-01-30T01:01:31;31.60;;;17.52;;
48835;SDS011;62581;47.342;7.908;2024-01-30T01:03:58;30.08;;;17.25;;
48835;SDS011;62581;47.342;7.908;2024-01-30T01:06:25;31.73;;;16.83;;
48835;SDS011;62581;47.342;7.908;2024-01-30T01:08:51;33.35;;;17.50;;
48835;SDS011;62581;47.342;7.908;2024-01-30T01:11:18;27.75;;;16.27;;
48835;SDS011;62581;47.342;7.908;2024-01-30T01:13:45;25.55;;;15.50;;
48835;SDS011;62581;47.342;7.908;2024-01-30T01:16:12;28.00;;;15.50;;
48835;SDS011;62581;47.342;7.908;2024-01-30T01:18:41;27.10;;;15.82;;
48835;SDS011;62581;47.342;7.908;2024-01-30T01:21:08;26.20;;;16.85;;
48835;SDS011;62581;47.342;7.908;2024-01-30T01:23:35;25.60;;;15.57;;
48835;SDS011;62581;47.342;7.908;2024-01-30T01:26:02;29.88;;;16.33;;
48835;SDS011;62581;47.342;7.908;2024-01-30T01:28:30;28.08;;;16.60;;
48835;SDS011;62581;47.342;7.908;2024-01-30T01:30:57;30.10;;;16.80;;
48835;SDS011;62581;47.342;7.908;2024-01-30T01:33:30;29.38;;;16.58;;
48835;SDS011;62581;47.342;7.908;2024-01-30T01:35:59;29.05;;;17.33;;
48835;SDS011;62581;47.342;7.908;2024-01-30T01:38:27;34.13;;;17.48;;
48835;SDS011;62581;47.342;7.908;2024-01-30T01:40:54;33.42;;;17.90;;
48835;SDS011;62581;47.342;7.908;2024-01-30T01:43:21;27.60;;;18.08;;
48835;SDS011;62581;47.342;7.908;2024-01-30T01:45:48;30.17;;;17.85;;
48835;SDS011;62581;47.342;7.908;2024-01-30T01:48:15;33.35;;;17.73;;
48835;SDS011;62581;47.342;7.908;2024-01-30T01:50:43;34.47;;;18.58;;
48835;SDS011;62581;47.342;7.908;2024-01-30T01:53:11;38.38;;;17.73;;
48835;SDS011;62581;47.342;7.908;2024-01-30T01:55:39;32.83;;;17.67;;
48835;SDS011;62581;47.342;7.908;2024-01-30T01:58:06;32.47;;;18.45;;
48835;SDS011;62581;47.342;7.908;2024-01-30T02:00:35;27.92;;;17.23;;
48835;SDS011;62581;47.342;7.908;2024-01-30T02:03:05;28.48;;;16.30;;
48835;SDS011;62581;47.342;7.908;2024-01-30T02:05:33;34.80;;;18.42;;
48835;SDS011;62581;47.342;7.908;2024-01-30T02:08:00;30.02;;;17.00;;
48835;SDS011;62581;47.342;7.908;2024-01-30T02:10:29;30.52;;;16.48;;
48835;SDS011;62581;47.342;7.908;2024-01-30T02:12:56;29.45;;;17.20;;
48835;SDS011;62581;47.342;7.908;2024-01-30T02:15:23;32.30;;;16.67;;
48835;SDS011;62581;47.342;7.908;2024-01-30T02:17:51;29.98;;;16.67;;
48835;SDS011;62581;47.342;7.908;2024-01-30T02:20:17;31.50;;;17.98;;
48835;SDS011;62581;47.342;7.908;2024-01-30T02:22:46;33.53;;;18.25;;
48835;SDS011;62581;47.342;7.908;2024-01-30T02:25:14;27.42;;;16.30;;
48835;SDS011;62581;47.342;7.908;2024-01-30T02:27:41;34.15;;;16.10;;
48835;SDS011;62581;47.342;7.908;2024-01-30T02:30:09;30.38;;;16.05;;
48835;SDS011;62581;47.342;7.908;2024-01-30T02:32:36;29.73;;;15.80;;
48835;SDS011;62581;47.342;7.908;2024-01-30T02:35:03;29.52;;;16.77;;
48835;SDS011;62581;47.342;7.908;2024-01-30T02:37:31;35.30;;;16.67;;
48835;SDS011;62581;47.342;7.908;2024-01-30T02:39:59;26.98;;;15.80;;
48835;SDS011;62581;47.342;7.908;2024-01-30T02:42:26;25.70;;;16.33;;
48835;SDS011;62581;47.342;7.908;2024-01-30T02:44:53;30.58;;;16.15;;
48835;SDS011;62581;47.342;7.908;2024-01-30T02:47:20;30.05;;;16.80;;
48835;SDS011;62581;47.342;7.908;2024-01-30T02:49:47;34.30;;;18.50;;
48835;SDS011;62581;47.342;7.908;2024-01-30T02:52:14;29.55;;;16.30;;
48835;SDS011;62581;47.342;7.908;2024-01-30T02:54:41;30.42;;;16.63;;
48835;SDS011;62581;47.342;7.908;2024-01-30T02:57:09;31.50;;;16.63;;
48835;SDS011;62581;47.342;7.908;2024-01-30T02:59:36;29.27;;;16.10;;
48835;SDS011;62581;47.342;7.908;2024-01-30T03:02:03;28.92;;;16.73;;
48835;SDS011;62581;47.342;7.908;2024-01-30T03:04:30;30.67;;;16.35;;
48835;SDS011;62581;47.342;7.908;2024-01-30T03:06:58;37.08;;;17.95;;
48835;SDS011;62581;47.342;7.908;2024-01-30T03:09:24;30.40;;;16.63;;
48835;SDS011;62581;47.342;7.908;2024-01-30T03:11:51;34.10;;;17.42;;
48835;SDS011;62581;47.342;7.908;2024-01-30T03:14:20;35.22;;;17.80;;
48835;SDS011;62581;47.342;7.908;2024-01-30T03:16:47;41.28;;;19.10;;
48835;SDS011;62581;47.342;7.908;2024-01-30T03:19:14;29.90;;;17.20;;
48835;SDS011;62581;47.342;7.908;2024-01-30T03:21:41;31.48;;;17.77;;
48835;SDS011;62581;47.342;7.908;2024-01-30T03:24:08;42.83;;;19.38;;
48835;SDS011;62581;47.342;7.908;2024-01-30T03:26:35;32.53;;;16.88;;
48835;SDS011;62581;47.342;7.908;2024-01-30T03:29:02;33.03;;;17.98;;
48835;SDS011;62581;47.342;7.908;2024-01-30T03:31:31;44.88;;;17.38;;
48835;SDS011;62581;47.342;7.908;2024-01-30T03:33:58;43.10;;;18.20;;
48835;SDS011;62581;47.342;7.908;2024-01-30T03:36:25;40.53;;;18.92;;
48835;SDS011;62581;47.342;7.908;2024-01-30T03:38:52;33.80;;;16.75;;
48835;SDS011;62581;47.342;7.908;2024-01-30T03:41:19;38.40;;;17.27;;
48835;SDS011;62581;47.342;7.908;2024-01-30T03:43:46;39.08;;;19.25;;
48835;SDS011;62581;47.342;7.908;2024-01-30T03:46:13;35.92;;;16.85;;
48835;SDS011;62581;47.342;7.908;2024-01-30T03:48:41;35.67;;;17.95;;
48835;SDS011;62581;47.342;7.908;2024-01-30T03:51:09;31.48;;;17.23;;
48835;SDS011;62581;47.342;7.908;2024-01-30T03:53:39;28.73;;;16.45;;
48835;SDS011;62581;47.342;7.908;2024-01-30T03:56:06;32.47;;;17.48;;
48835;SDS011;62581;47.342;7.908;2024-01-30T03:58:33;28.95;;;16.52;;
48835;SDS011;62581;47.342;7.908;2024-01-30T04:01:01;33.42;;;16.45;;
48835;SDS011;62581;47.342;7.908;2024-01-30T04:03:28;29.25;;;16.90;;
48835;SDS011;62581;47.342;7.908;2024-01-30T04:05:57;34.35;;;18.15;;
48835;SDS011;62581;47.342;7.908;2024-01-30T04:08:24;32.15;;;17.25;;
48835;SDS011;62581;47.342;7.908;2024-01-30T04:10:51;32.28;;;16.58;;
48835;SDS011;62581;47.342;7.908;2024-01-30T04:13:18;34.08;;;17.85;;
48835;SDS011;62581;47.342;7.908;2024-01-30T04:15:45;31.77;;;17.80;;
48835;SDS011;62581;47.342;7.908;2024-01-30T04:18:12;31.15;;;17.50;;
48835;SDS011;62581;47.342;7.908;2024-01-30T04:20:39;32.72;;;17.45;;
48835;SDS011;62581;47.342;7.908;2024-01-30T04:23:08;34.08;;;17.33;;
48835;SDS011;62581;47.342;7.908;2024-01-30T04:25:35;36.25;;;17.90;;
48835;SDS011;62581;47.342;7.908;2024-01-30T04:28:02;32.00;;;17.77;;
48835;SDS011;62581;47.342;7.908;2024-01-30T04:30:29;46.45;;;17.70;;
48835;SDS011;62581;47.342;7.908;2024-01-30T04:32:56;43.10;;;17.77;;
48835;SDS011;62581;47.342;7.908;2024-01-30T04:35:23;37.15;;;18.00;;
48835;SDS011;62581;47.342;7.908;2024-01-30T04:37:51;36.53;;;17.40;;
48835;SDS011;62581;47.342;7.908;2024-01-30T04:40:20;35.38;;;17.17;;
48835;SDS011;62581;47.342;7.908;2024-01-30T04:45:13;38.78;;;16.80;;
48835;SDS011;62581;47.342;7.908;2024-01-30T04:47:41;64.30;;;19.95;;
48835;SDS011;62581;47.342;7.908;2024-01-30T04:50:08;38.53;;;17.27;;
48835;SDS011;62581;47.342;7.908;2024-01-30T04:52:35;30.75;;;16.85;;
48835;SDS011;62581;47.342;7.908;2024-01-30T04:55:02;28.67;;;16.27;;
48835;SDS011;62581;47.342;7.908;2024-01-30T04:57:31;32.95;;;16.48;;
48835;SDS011;62581;47.342;7.908;2024-01-30T05:02:25;31.30;;;14.85;;
48835;SDS011;62581;47.342;7.908;2024-01-30T05:04:53;28.75;;;15.65;;
48835;SDS011;62581;47.342;7.908;2024-01-30T05:07:20;29.92;;;15.43;;
48835;SDS011;62581;47.342;7.908;2024-01-30T05:09:47;29.63;;;17.02;;
48835;SDS011;62581;47.342;7.908;2024-01-30T05:12:14;33.60;;;16.00;;
48835;SDS011;62581;47.342;7.908;2024-01-30T05:14:42;30.92;;;15.90;;
48835;SDS011;62581;47.342;7.908;2024-01-30T05:17:09;29.65;;;17.52;;
48835;SDS011;62581;47.342;7.908;2024-01-30T05:19:38;35.67;;;17.13;;
48835;SDS011;62581;47.342;7.908;2024-01-30T05:22:04;40.42;;;17.02;;
48835;SDS011;62581;47.342;7.908;2024-01-30T05:24:32;46.10;;;17.88;;
48835;SDS011;62581;47.342;7.908;2024-01-30T05:26:59;41.60;;;17.40;;
48835;SDS011;62581;47.342;7.908;2024-01-30T05:29:27;34.35;;;17.60;;
48835;SDS011;62581;47.342;7.908;2024-01-30T05:31:56;36.33;;;16.80;;
48835;SDS011;62581;47.342;7.908;2024-01-30T05:34:23;30.92;;;17.10;;
48835;SDS011;62581;47.342;7.908;2024-01-30T05:36:50;29.15;;;16.58;;
48835;SDS011;62581;47.342;7.908;2024-01-30T05:39:17;39.85;;;17.75;;
48835;SDS011;62581;47.342;7.908;2024-01-30T05:41:44;33.67;;;18.23;;
48835;SDS011;62581;47.342;7.908;2024-01-30T05:44:11;45.25;;;16.95;;
48835;SDS011;62581;47.342;7.908;2024-01-30T05:46:38;46.67;;;18.58;;
48835;SDS011;62581;47.342;7.908;2024-01-30T05:49:06;49.58;;;17.95;;
48835;SDS011;62581;47.342;7.908;2024-01-30T05:51:33;56.42;;;20.55;;
48835;SDS011;62581;47.342;7.908;2024-01-30T05:54:00;51.28;;;17.42;;
48835;SDS011;62581;47.342;7.908;2024-01-30T05:56:28;53.45;;;18.60;;
48835;SDS011;62581;47.342;7.908;2024-01-30T05:58:55;45.42;;;17.33;;
48835;SDS011;62581;47.342;7.908;2024-01-30T06:01:22;40.08;;;17.80;;
48835;SDS011;62581;47.342;7.908;2024-01-30T06:03:49;65.25;;;19.35;;
48835;SDS011;62581;47.342;7.908;2024-01-30T06:06:18;62.33;;;19.08;;
48835;SDS011;62581;47.342;7.908;2024-01-30T06:08:45;62.92;;;19.42;;
48835;SDS011;62581;47.342;7.908;2024-01-30T06:11:12;50.63;;;18.55;;
48835;SDS011;62581;47.342;7.908;2024-01-30T06:13:39;50.53;;;18.50;;
48835;SDS011;62581;47.342;7.908;2024-01-30T06:16:05;53.25;;;19.27;;
48835;SDS011;62581;47.342;7.908;2024-01-30T06:18:36;54.70;;;19.70;;
48835;SDS011;62581;47.342;7.908;2024-01-30T06:21:04;50.00;;;18.02;;
48835;SDS011;62581;47.342;7.908;2024-01-30T06:23:32;45.83;;;17.73;;
48835;SDS011;62581;47.342;7.908;2024-01-30T06:28:26;51.13;;;16.55;;
48835;SDS011;62581;47.342;7.908;2024-01-30T06:30:53;55.00;;;19.33;;
48835;SDS011;62581;47.342;7.908;2024-01-30T06:33:20;56.75;;;18.45;;
48835;SDS011;62581;47.342;7.908;2024-01-30T06:35:48;54.08;;;19.23;;
48835;SDS011;62581;47.342;7.908;2024-01-30T06:38:15;54.35;;;19.55;;
48835;SDS011;62581;47.342;7.908;2024-01-30T06:40:43;43.53;;;19.63;;
48835;SDS011;62581;47.342;7.908;2024-01-30T06:43:10;52.55;;;19.38;;
48835;SDS011;62581;47.342;7.908;2024-01-30T06:45:37;67.63;;;21.23;;
48835;SDS011;62581;47.342;7.908;2024-01-30T06:48:05;62.92;;;20.17;;
48835;SDS011;62581;47.342;7.908;2024-01-30T06:50:34;44.65;;;18.88;;
48835;SDS011;62581;47.342;7.908;2024-01-30T06:53:01;46.20;;;20.42;;
48835;SDS011;62581;47.342;7.908;2024-01-30T06:55:28;56.13;;;20.30;;
48835;SDS011;62581;47.342;7.908;2024-01-30T06:57:56;70.22;;;20.08;;
48835;SDS011;62581;47.342;7.908;2024-01-30T07:00:23;50.97;;;19.08;;
48835;SDS011;62581;47.342;7.908;2024-01-30T07:02:50;44.95;;;19.13;;
48835;SDS011;62581;47.342;7.908;2024-01-30T07:05:17;56.08;;;18.90;;
48835;SDS011;62581;47.342;7.908;2024-01-30T07:07:44;34.75;;;17.85;;
48835;SDS011;62581;47.342;7.908;2024-01-30T07:10:11;54.97;;;20.70;;
48835;SDS011;62581;47.342;7.908;2024-01-30T07:12:39;35.58;;;19.50;;
48835;SDS011;62581;47.342;7.908;2024-01-30T07:15:08;40.10;;;18.83;;
48835;SDS011;62581;47.342;7.908;2024-01-30T07:17:35;54.88;;;19.38;;
48835;SDS011;62581;47.342;7.908;2024-01-30T07:20:03;35.55;;;18.95;;
48835;SDS011;62581;47.342;7.908;2024-01-30T07:22:31;34.30;;;19.60;;
48835;SDS011;62581;47.342;7.908;2024-01-30T07:24:59;56.55;;;20.52;;
48835;SDS011;62581;47.342;7.908;2024-01-30T07:27:26;70.57;;;19.88;;
48835;SDS011;62581;47.342;7.908;2024-01-30T07:29:53;42.08;;;19.65;;
48835;SDS011;62581;47.342;7.908;2024-01-30T07:32:22;41.58;;;18.20;;
48835;SDS011;62581;47.342;7.908;2024-01-30T07:34:49;42.72;;;17.75;;
48835;SDS011;62581;47.342;7.908;2024-01-30T07:37:16;45.65;;;18.00;;
48835;SDS011;62581;47.342;7.908;2024-01-30T07:39:43;44.97;;;18.98;;
48835;SDS011;62581;47.342;7.908;2024-01-30T07:42:10;34.97;;;19.13;;
48835;SDS011;62581;47.342;7.908;2024-01-30T07:44:37;43.38;;;19.40;;
48835;SDS011;62581;47.342;7.908;2024-01-30T07:47:04;42.88;;;17.95;;
48835;SDS011;62581;47.342;7.908;2024-01-30T07:49:34;33.17;;;16.60;;
48835;SDS011;62581;47.342;7.908;2024-01-30T07:54:28;37.28;;;17.30;;
48835;SDS011;62581;47.342;7.908;2024-01-30T07:56:59;39.22;;;18.38;;
48835;SDS011;62581;47.342;7.908;2024-01-30T07:59:26;30.20;;;17.25;;
48835;SDS011;62581;47.342;7.908;2024-01-30T08:01:53;33.15;;;18.05;;
48835;SDS011;62581;47.342;7.908;2024-01-30T08:04:20;34.83;;;18.50;;
48835;SDS011;62581;47.342;7.908;2024-01-30T08:06:49;33.13;;;17.92;;
48835;SDS011;62581;47.342;7.908;2024-01-30T08:09:16;35.58;;;18.77;;
48835;SDS011;62581;47.342;7.908;2024-01-30T08:11:43;33.13;;;17.80;;
48835;SDS011;62581;47.342;7.908;2024-01-30T08:14:10;31.70;;;17.10;;
48835;SDS011;62581;47.342;7.908;2024-01-30T08:16:38;31.98;;;17.95;;
48835;SDS011;62581;47.342;7.908;2024-01-30T08:19:05;33.15;;;18.38;;
48835;SDS011;62581;47.342;7.908;2024-01-30T08:21:32;30.33;;;17.58;;
48835;SDS011;62581;47.342;7.908;2024-01-30T08:24:03;31.60;;;17.42;;
48835;SDS011;62581;47.342;7.908;2024-01-30T08:28:58;30.38;;;17.35;;
48835;SDS011;62581;47.342;7.908;2024-01-30T08:31:25;32.28;;;17.15;;
48835;SDS011;62581;47.342;7.908;2024-01-30T08:33:52;26.17;;;15.82;;
48835;SDS011;62581;47.342;7.908;2024-01-30T08:36:19;27.98;;;15.88;;
48835;SDS011;62581;47.342;7.908;2024-01-30T08:38:46;28.85;;;16.73;;
48835;SDS011;62581;47.342;7.908;2024-01-30T08:41:14;27.02;;;15.88;;
48835;SDS011;62581;47.342;7.908;2024-01-30T08:43:41;27.85;;;15.68;;
48835;SDS011;62581;47.342;7.908;2024-01-30T08:46:09;27.10;;;15.15;;
48835;SDS011;62581;47.342;7.908;2024-01-30T08:48:36;22.90;;;14.93;;
48835;SDS011;62581;47.342;7.908;2024-01-30T08:51:04;26.73;;;14.98;;
48835;SDS011;62581;47.342;7.908;2024-01-30T08:53:33;22.63;;;14.02;;
48835;SDS011;62581;47.342;7.908;2024-01-30T08:56:01;25.40;;;14.83;;
48835;SDS011;62581;47.342;7.908;2024-01-30T08:58:29;27.75;;;13.85;;
48835;SDS011;62581;47.342;7.908;2024-01-30T09:00:57;20.73;;;13.60;;
48835;SDS011;62581;47.342;7.908;2024-01-30T09:03:24;24.33;;;13.50;;
48835;SDS011;62581;47.342;7.908;2024-01-30T09:05:52;21.60;;;12.55;;
48835;SDS011;62581;47.342;7.908;2024-01-30T09:08:19;21.00;;;13.23;;
48835;SDS011;62581;47.342;7.908;2024-01-30T09:10:46;20.58;;;11.68;;
48835;SDS011;62581;47.342;7.908;2024-01-30T09:13:14;20.45;;;12.32;;
48835;SDS011;62581;47.342;7.908;2024-01-30T09:15:43;23.92;;;13.50;;
48835;SDS011;62581;47.342;7.908;2024-01-30T09:18:10;19.08;;;11.48;;
48835;SDS011;62581;47.342;7.908;2024-01-30T09:20:37;20.17;;;12.73;;
48835;SDS011;62581;47.342;7.908;2024-01-30T09:23:04;25.42;;;13.15;;
48835;SDS011;62581;47.342;7.908;2024-01-30T09:25:31;18.30;;;12.02;;
48835;SDS011;62581;47.342;7.908;2024-01-30T09:27:59;20.63;;;12.57;;
48835;SDS011;62581;47.342;7.908;2024-01-30T09:30:26;22.00;;;12.05;;
48835;SDS011;62581;47.342;7.908;2024-01-30T09:32:54;19.85;;;12.15;;
48835;SDS011;62581;47.342;7.908;2024-01-30T09:35:21;19.75;;;12.38;;
48835;SDS011;62581;47.342;7.908;2024-01-30T09:37:48;17.85;;;12.30;;
48835;SDS011;62581;47.342;7.908;2024-01-30T09:40:16;20.40;;;12.40;;
48835;SDS011;62581;47.342;7.908;2024-01-30T09:42:44;19.77;;;12.73;;
48835;SDS011;62581;47.342;7.908;2024-01-30T09:45:14;20.50;;;12.77;;
48835;SDS011;62581;47.342;7.908;2024-01-30T09:47:41;21.27;;;12.43;;
48835;SDS011;62581;47.342;7.908;2024-01-30T09:50:10;23.42;;;14.30;;
48835;SDS011;62581;47.342;7.908;2024-01-30T09:52:39;28.33;;;15.68;;
48835;SDS011;62581;47.342;7.908;2024-01-30T09:55:06;32.70;;;17.15;;
48835;SDS011;62581;47.342;7.908;2024-01-30T09:57:34;29.48;;;16.85;;
48835;SDS011;62581;47.342;7.908;2024-01-30T10:00:01;28.48;;;16.27;;
48835;SDS011;62581;47.342;7.908;2024-01-30T10:02:29;33.40;;;17.03;;
48835;SDS011;62581;47.342;7.908;2024-01-30T10:04:57;37.15;;;20.08;;
48835;SDS011;62581;47.342;7.908;2024-01-30T10:07:26;37.17;;;19.08;;
48835;SDS011;62581;47.342;7.908;2024-01-30T10:09:53;31.92;;;18.40;;
48835;SDS011;62581;47.342;7.908;2024-01-30T10:12:21;45.63;;;19.85;;
48835;SDS011;62581;47.342;7.908;2024-01-30T10:14:48;34.15;;;16.63;;
48835;SDS011;62581;47.342;7.908;2024-01-30T10:17:15;35.33;;;18.33;;
48835;SDS011;62581;47.342;7.908;2024-01-30T10:19:42;30.83;;;17.65;;
48835;SDS011;62581;47.342;7.908;2024-01-30T10:22:10;22.17;;;13.68;;
48835;SDS011;62581;47.342;7.908;2024-01-30T10:24:38;25.27;;;13.30;;
48835;SDS011;62581;47.342;7.908;2024-01-30T10:27:05;25.23;;;13.23;;
48835;SDS011;62581;47.342;7.908;2024-01-30T10:29:32;29.73;;;14.45;;
48835;SDS011;62581;47.342;7.908;2024-01-30T10:32:00;27.20;;;14.98;;
48835;SDS011;62581;47.342;7.908;2024-01-30T10:34:27;26.98;;;15.57;;
48835;SDS011;62581;47.342;7.908;2024-01-30T10:36:58;26.05;;;14.55;;
48835;SDS011;62581;47.342;7.908;2024-01-30T10:39:39;22.45;;;12.95;;
48835;SDS011;62581;47.342;7.908;2024-01-30T10:42:06;26.08;;;13.00;;
48835;SDS011;62581;47.342;7.908;2024-01-30T10:44:38;32.00;;;15.95;;
48835;SDS011;62581;47.342;7.908;2024-01-30T10:47:11;35.25;;;18.02;;
48835;SDS011;62581;47.342;7.908;2024-01-30T10:49:39;34.70;;;18.52;;
48835;SDS011;62581;47.342;7.908;2024-01-30T10:52:09;36.60;;;19.67;;
48835;SDS011;62581;47.342;7.908;2024-01-30T10:54:39;34.05;;;19.13;;
48835;SDS011;62581;47.342;7.908;2024-01-30T10:57:09;23.88;;;13.93;;
48835;SDS011;62581;47.342;7.908;2024-01-30T10:59:39;20.15;;;12.07;;
48835;SDS011;62581;47.342;7.908;2024-01-30T11:02:07;21.80;;;12.68;;
48835;SDS011;62581;47.342;7.908;2024-01-30T11:04:36;20.48;;;12.57;;
48835;SDS011;62581;47.342;7.908;2024-01-30T11:07:13;20.23;;;12.10;;
48835;SDS011;62581;47.342;7.908;2024-01-30T11:09:47;23.10;;;12.38;;
48835;SDS011;62581;47.342;7.908;2024-01-30T11:12:15;18.73;;;11.55;;
48835;SDS011;62581;47.342;7.908;2024-01-30T11:14:42;22.15;;;12.38;;
48835;SDS011;62581;47.342;7.908;2024-01-30T11:17:09;22.85;;;11.82;;
48835;SDS011;62581;47.342;7.908;2024-01-30T11:22:07;24.25;;;13.70;;
48835;SDS011;62581;47.342;7.908;2024-01-30T11:24:38;26.10;;;15.48;;
48835;SDS011;62581;47.342;7.908;2024-01-30T11:27:09;29.75;;;17.80;;
48835;SDS011;62581;47.342;7.908;2024-01-30T11:29:36;32.75;;;17.35;;
48835;SDS011;62581;47.342;7.908;2024-01-30T11:32:03;25.55;;;16.17;;
48835;SDS011;62581;47.342;7.908;2024-01-30T11:34:32;23.38;;;14.32;;
48835;SDS011;62581;47.342;7.908;2024-01-30T11:37:02;24.60;;;13.90;;
48835;SDS011;62581;47.342;7.908;2024-01-30T11:39:36;28.13;;;16.15;;
48835;SDS011;62581;47.342;7.908;2024-01-30T11:42:06;26.67;;;15.13;;
48835;SDS011;62581;47.342;7.908;2024-01-30T11:44:35;28.67;;;16.13;;
48835;SDS011;62581;47.342;7.908;2024-01-30T11:47:02;30.20;;;16.23;;
48835;SDS011;62581;47.342;7.908;2024-01-30T11:49:29;27.70;;;15.85;;
48835;SDS011;62581;47.342;7.908;2024-01-30T11:51:56;25.38;;;14.63;;
48835;SDS011;62581;47.342;7.908;2024-01-30T11:54:23;22.15;;;15.00;;
48835;SDS011;62581;47.342;7.908;2024-01-30T11:56:51;23.30;;;14.93;;
48835;SDS011;62581;47.342;7.908;2024-01-30T11:59:19;25.40;;;15.20;;
48835;SDS011;62581;47.342;7.908;2024-01-30T12:01:46;22.80;;;14.20;;
48835;SDS011;62581;47.342;7.908;2024-01-30T12:04:14;23.27;;;14.60;;
48835;SDS011;62581;47.342;7.908;2024-01-30T12:06:41;22.77;;;14.32;;
48835;SDS011;62581;47.342;7.908;2024-01-30T12:09:08;23.73;;;14.23;;
48835;SDS011;62581;47.342;7.908;2024-01-30T12:11:47;24.88;;;14.30;;
48835;SDS011;62581;47.342;7.908;2024-01-30T12:14:15;22.55;;;13.45;;
48835;SDS011;62581;47.342;7.908;2024-01-30T12:16:49;18.88;;;12.82;;
48835;SDS011;62581;47.342;7.908;2024-01-30T12:19:22;20.75;;;13.30;;
48835;SDS011;62581;47.342;7.908;2024-01-30T12:21:53;21.02;;;12.93;;
48835;SDS011;62581;47.342;7.908;2024-01-30T12:24:22;20.13;;;12.82;;
48835;SDS011;62581;47.342;7.908;2024-01-30T12:26:49;19.95;;;13.20;;
48835;SDS011;62581;47.342;7.908;2024-01-30T12:29:17;18.33;;;12.27;;
48835;SDS011;62581;47.342;7.908;2024-01-30T12:31:44;20.92;;;13.25;;
48835;SDS011;62581;47.342;7.908;2024-01-30T12:34:14;20.65;;;13.77;;
48835;SDS011;62581;47.342;7.908;2024-01-30T12:36:42;20.83;;;13.02;;
48835;SDS011;62581;47.342;7.908;2024-01-30T12:39:10;25.23;;;14.02;;
48835;SDS011;62581;47.342;7.908;2024-01-30T12:41:39;20.88;;;12.70;;
48835;SDS011;62581;47.342;7.908;2024-01-30T12:44:06;18.77;;;11.98;;
48835;SDS011;62581;47.342;7.908;2024-01-30T12:46:34;22.15;;;15.38;;
48835;SDS011;62581;47.342;7.908;2024-01-30T12:49:01;26.42;;;15.25;;
48835;SDS011;62581;47.342;7.908;2024-01-30T12:51:29;20.00;;;13.20;;
48835;SDS011;62581;47.342;7.908;2024-01-30T12:53:56;18.00;;;12.52;;
48835;SDS011;62581;47.342;7.908;2024-01-30T12:56:23;20.92;;;12.60;;
48835;SDS011;62581;47.342;7.908;2024-01-30T12:58:50;19.75;;;12.70;;
48835;SDS011;62581;47.342;7.908;2024-01-30T13:01:18;22.17;;;13.75;;
48835;SDS011;62581;47.342;7.908;2024-01-30T13:03:45;21.25;;;12.55;;
48835;SDS011;62581;47.342;7.908;2024-01-30T13:06:13;23.27;;;13.07;;
48835;SDS011;62581;47.342;7.908;2024-01-30T13:08:41;17.67;;;12.65;;
48835;SDS011;62581;47.342;7.908;2024-01-30T13:11:08;19.88;;;12.95;;
48835;SDS011;62581;47.342;7.908;2024-01-30T13:13:37;19.20;;;13.00;;
48835;SDS011;62581;47.342;7.908;2024-01-30T13:16:04;20.45;;;13.10;;
48835;SDS011;62581;47.342;7.908;2024-01-30T13:18:32;21.20;;;14.40;;
48835;SDS011;62581;47.342;7.908;2024-01-30T13:20:59;20.65;;;14.65;;
48835;SDS011;62581;47.342;7.908;2024-01-30T13:23:26;17.50;;;12.13;;
48835;SDS011;62581;47.342;7.908;2024-01-30T13:25:54;23.95;;;14.13;;
48835;SDS011;62581;47.342;7.908;2024-01-30T13:28:23;21.50;;;14.95;;
48835;SDS011;62581;47.342;7.908;2024-01-30T13:30:51;18.60;;;12.88;;
48835;SDS011;62581;47.342;7.908;2024-01-30T13:33:18;20.05;;;12.95;;
48835;SDS011;62581;47.342;7.908;2024-01-30T13:35:45;19.33;;;12.85;;
48835;SDS011;62581;47.342;7.908;2024-01-30T13:38:12;20.73;;;13.23;;
48835;SDS011;62581;47.342;7.908;2024-01-30T13:40:40;20.02;;;12.90;;
48835;SDS011;62581;47.342;7.908;2024-01-30T13:43:09;18.45;;;12.02;;
48835;SDS011;62581;47.342;7.908;2024-01-30T13:45:36;26.05;;;14.43;;
48835;SDS011;62581;47.342;7.908;2024-01-30T13:48:03;21.67;;;15.02;;
48835;SDS011;62581;47.342;7.908;2024-01-30T13:50:31;22.30;;;13.57;;
48835;SDS011;62581;47.342;7.908;2024-01-30T13:52:59;19.67;;;13.93;;
48835;SDS011;62581;47.342;7.908;2024-01-30T13:55:26;20.65;;;14.45;;
48835;SDS011;62581;47.342;7.908;2024-01-30T13:59:47;22.80;;;14.10;;
48835;SDS011;62581;47.342;7.908;2024-01-30T14:02:14;23.30;;;14.30;;
48835;SDS011;62581;47.342;7.908;2024-01-30T14:04:41;25.13;;;14.65;;
48835;SDS011;62581;47.342;7.908;2024-01-30T14:07:08;20.05;;;13.60;;
48835;SDS011;62581;47.342;7.908;2024-01-30T14:09:35;23.30;;;14.38;;
48835;SDS011;62581;47.342;7.908;2024-01-30T14:12:03;24.15;;;14.48;;
48835;SDS011;62581;47.342;7.908;2024-01-30T14:14:30;24.05;;;14.50;;
48835;SDS011;62581;47.342;7.908;2024-01-30T14:16:58;25.90;;;15.45;;
48835;SDS011;62581;47.342;7.908;2024-01-30T14:19:26;27.20;;;14.88;;
48835;SDS011;62581;47.342;7.908;2024-01-30T14:21:53;26.60;;;14.57;;
48835;SDS011;62581;47.342;7.908;2024-01-30T14:24:20;23.67;;;14.43;;
48835;SDS011;62581;47.342;7.908;2024-01-30T14:26:47;23.85;;;14.32;;
48835;SDS011;62581;47.342;7.908;2024-01-30T14:29:14;22.50;;;14.07;;
48835;SDS011;62581;47.342;7.908;2024-01-30T14:31:41;24.13;;;15.07;;
48835;SDS011;62581;47.342;7.908;2024-01-30T14:34:10;25.52;;;16.00;;
48835;SDS011;62581;47.342;7.908;2024-01-30T14:36:37;25.05;;;14.82;;
48835;SDS011;62581;47.342;7.908;2024-01-30T14:39:05;24.10;;;13.77;;